createdAt,value
2022-12-24T00:01:36.847Z,0.90
2022-12-24T00:04:05.353Z,0.97
2022-12-24T00:06:33.223Z,1.30
2022-12-24T00:09:01.551Z,1.00
2022-12-24T00:11:29.419Z,1.00
2022-12-24T00:13:59.010Z,0.80
2022-12-24T00:16:26.953Z,1.27
2022-12-24T00:18:55.181Z,1.30
2022-12-24T00:21:23.186Z,1.20
2022-12-24T00:23:51.126Z,1.40
2022-12-24T00:26:22.311Z,1.23
2022-12-24T00:28:50.492Z,1.33
2022-12-24T00:31:20.416Z,1.17
2022-12-24T00:33:49.172Z,1.10
2022-12-24T00:36:18.238Z,0.70
2022-12-24T00:38:46.995Z,0.90
2022-12-24T00:41:25.718Z,0.80
2022-12-24T00:43:55.120Z,0.80
2022-12-24T00:46:26.314Z,0.60
2022-12-24T00:48:55.217Z,0.87
2022-12-24T00:51:24.628Z,0.80
2022-12-24T00:53:53.697Z,0.60
2022-12-24T00:56:22.720Z,0.77
2022-12-24T00:58:51.138Z,0.77
2022-12-24T01:01:20.148Z,0.90
2022-12-24T01:03:51.224Z,0.90
2022-12-24T01:06:21.410Z,0.90
2022-12-24T01:08:52.261Z,1.00
2022-12-24T01:11:20.589Z,1.03
2022-12-24T01:13:48.502Z,0.93
2022-12-24T01:16:20.115Z,0.80
2022-12-24T01:18:49.510Z,0.97
2022-12-24T01:21:17.875Z,0.63
2022-12-24T01:23:46.409Z,0.83
2022-12-24T01:26:14.688Z,0.70
2022-12-24T01:28:43.058Z,0.50
2022-12-24T01:31:15.677Z,0.70
2022-12-24T01:33:44.546Z,0.50
2022-12-24T01:36:15.154Z,0.50
2022-12-24T01:38:43.501Z,0.43
2022-12-24T01:41:36.158Z,0.67
2022-12-24T01:44:33.118Z,0.30
2022-12-24T01:47:12.816Z,0.30
2022-12-24T01:49:47.556Z,0.40
2022-12-24T01:52:21.808Z,0.40
2022-12-24T01:54:54.740Z,0.50
2022-12-24T01:57:28.960Z,0.60
2022-12-24T02:00:01.794Z,0.63
2022-12-24T02:02:34.141Z,0.47
2022-12-24T02:05:08.974Z,0.43
2022-12-24T02:07:38.707Z,0.83
2022-12-24T02:10:10.605Z,4.57
2022-12-24T02:12:40.468Z,2.00
2022-12-24T02:15:14.395Z,0.77
2022-12-24T02:17:58.587Z,0.40
2022-12-24T02:21:05.335Z,1.00
2022-12-24T02:24:10.031Z,1.00
2022-12-24T02:27:01.493Z,0.50
2022-12-24T02:30:04.563Z,0.70
2022-12-24T02:32:54.861Z,0.60
2022-12-24T02:35:35.615Z,0.50
2022-12-24T02:38:27.058Z,0.50
2022-12-24T02:41:02.329Z,0.43
2022-12-24T02:43:36.585Z,0.50
2022-12-24T02:46:12.756Z,0.47
2022-12-24T02:48:45.150Z,0.23
2022-12-24T02:51:13.170Z,0.40
2022-12-24T02:53:42.264Z,0.37
2022-12-24T02:56:35.210Z,0.40
2022-12-24T02:59:31.172Z,0.40
2022-12-24T03:02:14.382Z,0.40
2022-12-24T03:04:49.695Z,0.67
2022-12-24T03:07:27.059Z,0.60
2022-12-24T03:10:19.368Z,0.70
2022-12-24T03:12:52.972Z,0.70
2022-12-24T03:15:25.888Z,0.77
2022-12-24T03:18:01.292Z,0.63
2022-12-24T03:20:38.067Z,0.73
2022-12-24T03:23:06.556Z,0.90
2022-12-24T03:25:36.608Z,0.90
2022-12-24T03:28:08.086Z,1.17
2022-12-24T03:30:36.410Z,0.97
2022-12-24T03:33:05.636Z,0.90
2022-12-24T03:35:33.524Z,1.17
2022-12-24T03:38:01.418Z,1.17
2022-12-24T03:40:29.293Z,1.00
2022-12-24T03:42:57.386Z,0.90
2022-12-24T03:45:25.413Z,0.90
2022-12-24T03:47:53.377Z,0.90
2022-12-24T03:50:22.648Z,0.83
2022-12-24T03:52:50.509Z,0.70
2022-12-24T03:55:18.480Z,0.50
2022-12-24T03:57:46.362Z,0.70
2022-12-24T04:00:15.856Z,0.90
2022-12-24T04:02:44.707Z,0.70
2022-12-24T04:05:17.320Z,0.80
2022-12-24T04:07:47.904Z,1.10
2022-12-24T04:10:16.794Z,1.23
2022-12-24T04:12:44.846Z,1.00
2022-12-24T04:15:12.791Z,1.33
2022-12-24T04:17:40.670Z,1.80
2022-12-24T04:20:10.191Z,1.70
2022-12-24T04:22:38.069Z,1.70
2022-12-24T04:25:09.699Z,1.80
2022-12-24T04:27:40.349Z,1.80
2022-12-24T04:30:10.485Z,2.00
2022-12-24T04:32:38.363Z,2.27
2022-12-24T04:35:07.204Z,1.90
2022-12-24T04:37:35.661Z,2.10
2022-12-24T04:40:03.793Z,2.10
2022-12-24T04:42:33.011Z,2.30
2022-12-24T04:45:00.933Z,2.30
2022-12-24T04:47:31.693Z,2.37
2022-12-24T04:50:01.441Z,2.50
2022-12-24T04:52:29.379Z,2.40
2022-12-24T04:54:57.325Z,2.90
2022-12-24T04:57:25.212Z,2.33
2022-12-24T04:59:54.420Z,2.23
2022-12-24T05:02:22.413Z,2.47
2022-12-24T05:04:50.735Z,2.07
2022-12-24T05:07:18.675Z,1.67
2022-12-24T05:09:46.529Z,1.70
2022-12-24T05:12:14.444Z,1.83
2022-12-24T05:14:42.338Z,1.70
2022-12-24T05:17:11.913Z,1.60
2022-12-24T05:19:39.871Z,1.73
2022-12-24T05:22:25.249Z,1.97
2022-12-24T05:25:22.199Z,2.00
2022-12-24T05:27:51.488Z,2.13
2022-12-24T05:30:19.742Z,2.20
2022-12-24T05:32:48.987Z,2.10
2022-12-24T05:35:17.016Z,2.17
2022-12-24T05:37:44.967Z,2.00
2022-12-24T05:40:13.378Z,1.97
2022-12-24T05:42:41.450Z,1.87
2022-12-24T05:45:11.019Z,2.10
2022-12-24T05:47:43.269Z,2.20
2022-12-24T05:50:13.819Z,2.40
2022-12-24T05:52:41.695Z,2.47
2022-12-24T05:55:10.787Z,2.00
2022-12-24T05:57:41.148Z,2.43
2022-12-24T06:00:10.725Z,2.70
2022-12-24T06:02:41.215Z,2.80
2022-12-24T06:05:10.102Z,3.00
2022-12-24T06:07:39.540Z,2.60
2022-12-24T06:10:10.081Z,2.97
2022-12-24T06:12:37.981Z,3.80
2022-12-24T06:15:07.645Z,3.07
2022-12-24T06:17:35.616Z,3.00
2022-12-24T06:20:03.687Z,3.03
2022-12-24T06:22:32.126Z,3.27
2022-12-24T06:25:01.427Z,3.40
2022-12-24T06:27:29.319Z,3.70
2022-12-24T06:29:57.259Z,3.03
2022-12-24T06:32:25.155Z,3.20
2022-12-24T06:34:53.045Z,3.53
2022-12-24T06:37:21.704Z,3.33
2022-12-24T06:39:49.557Z,3.20
2022-12-24T06:42:18.749Z,3.10
2022-12-24T06:44:46.597Z,3.57
2022-12-24T06:47:14.455Z,3.47
2022-12-24T06:49:42.351Z,3.47
2022-12-24T06:52:10.273Z,3.33
2022-12-24T06:54:38.255Z,3.40
2022-12-24T06:57:06.868Z,3.13
2022-12-24T06:59:36.056Z,3.60
2022-12-24T07:02:04.171Z,3.30
2022-12-24T07:04:32.335Z,2.77
2022-12-24T07:07:00.209Z,3.83
2022-12-24T07:09:30.951Z,3.20
2022-12-24T07:11:59.035Z,3.20
2022-12-24T07:14:26.961Z,2.90
2022-12-24T07:16:59.313Z,3.33
2022-12-24T07:19:27.524Z,3.17
2022-12-24T07:21:55.378Z,3.33
2022-12-24T07:24:23.254Z,3.30
2022-12-24T07:26:51.549Z,2.87
2022-12-24T07:29:19.766Z,3.80
2022-12-24T07:31:47.688Z,3.10
2022-12-24T07:34:17.284Z,3.13
2022-12-24T07:36:45.256Z,4.03
2022-12-24T07:39:13.131Z,3.30
2022-12-24T07:41:41.983Z,3.10
2022-12-24T07:44:13.251Z,2.87
2022-12-24T07:46:41.652Z,3.27
2022-12-24T07:49:10.373Z,2.83
2022-12-24T07:51:39.925Z,2.90
2022-12-24T07:54:08.124Z,2.67
2022-12-24T07:56:36.301Z,2.70
2022-12-24T07:59:04.367Z,2.83
2022-12-24T08:01:32.659Z,2.80
2022-12-24T08:04:00.636Z,2.90
2022-12-24T08:06:28.859Z,2.80
2022-12-24T08:08:58.138Z,2.57
2022-12-24T08:11:26.298Z,3.40
2022-12-24T08:13:54.653Z,3.10
2022-12-24T08:16:22.792Z,2.30
2022-12-24T08:18:50.731Z,2.93
2022-12-24T08:21:18.902Z,3.30
2022-12-24T08:23:48.133Z,2.10
2022-12-24T08:26:18.675Z,2.90
2022-12-24T08:28:46.553Z,2.30
2022-12-24T08:31:15.851Z,2.43
2022-12-24T08:33:43.779Z,2.60
2022-12-24T08:36:11.681Z,2.30
2022-12-24T08:38:39.984Z,2.23
2022-12-24T08:41:07.851Z,3.13
2022-12-24T08:43:37.059Z,2.63
2022-12-24T08:46:07.877Z,2.60
2022-12-24T08:48:37.319Z,2.47
2022-12-24T08:51:09.497Z,2.53
2022-12-24T08:53:37.497Z,2.97
2022-12-24T08:56:08.543Z,2.80
2022-12-24T08:58:37.969Z,3.00
2022-12-24T09:01:13.199Z,2.83
2022-12-24T09:03:41.677Z,3.23
2022-12-24T09:06:11.139Z,2.80
2022-12-24T09:08:39.156Z,4.17
2022-12-24T09:11:09.519Z,3.43
2022-12-24T09:13:39.783Z,3.23
2022-12-24T09:16:09.437Z,3.47
2022-12-24T09:18:38.779Z,3.73
2022-12-24T09:21:11.275Z,3.30
2022-12-24T09:23:40.632Z,3.27
2022-12-24T09:26:15.596Z,3.10
2022-12-24T09:28:45.220Z,3.30
2022-12-24T09:31:14.759Z,2.43
2022-12-24T09:33:45.867Z,2.93
2022-12-24T09:36:14.053Z,2.93
2022-12-24T09:38:42.017Z,2.70
2022-12-24T09:41:15.951Z,2.73
2022-12-24T09:43:54.027Z,2.97
2022-12-24T09:46:29.160Z,3.23
2022-12-24T09:49:05.281Z,3.10
2022-12-24T09:51:40.360Z,2.70
2022-12-24T09:54:18.913Z,2.93
2022-12-24T09:56:49.643Z,2.80
2022-12-24T09:59:24.125Z,2.50
2022-12-24T10:01:55.783Z,2.60
2022-12-24T10:04:30.356Z,3.07
2022-12-24T10:07:12.108Z,2.93
2022-12-24T10:09:51.848Z,2.40
2022-12-24T10:12:32.144Z,3.27
2022-12-24T10:15:13.806Z,2.30
2022-12-24T10:17:56.610Z,2.60
2022-12-24T10:20:40.070Z,2.07
2022-12-24T10:23:20.409Z,2.10
2022-12-24T10:26:04.491Z,2.80
2022-12-24T10:28:43.073Z,1.90
2022-12-24T10:31:13.578Z,1.70
2022-12-24T10:33:45.129Z,1.77
2022-12-24T10:36:18.487Z,1.90
2022-12-24T10:38:47.517Z,1.37
2022-12-24T10:41:17.189Z,1.83
2022-12-24T10:43:48.616Z,1.97
2022-12-24T10:46:23.782Z,1.53
2022-12-24T10:48:58.922Z,1.87
2022-12-24T10:51:41.589Z,1.40
2022-12-24T10:54:17.301Z,1.50
2022-12-24T10:56:52.505Z,1.43
2022-12-24T10:59:28.049Z,1.43
2022-12-24T11:02:00.377Z,1.90
2022-12-24T11:04:32.494Z,1.60
2022-12-24T11:07:03.456Z,2.37
2022-12-24T11:09:34.541Z,2.13
2022-12-24T11:12:09.469Z,2.47
2022-12-24T11:14:40.266Z,2.13
2022-12-24T11:17:23.182Z,2.37
2022-12-24T11:19:52.234Z,2.40
2022-12-24T11:22:26.122Z,2.67
2022-12-24T11:25:19.354Z,2.30
2022-12-24T11:27:50.623Z,2.40
2022-12-24T11:30:33.676Z,3.67
2022-12-24T11:33:20.309Z,3.63
2022-12-24T11:35:55.491Z,3.47
2022-12-24T11:38:27.131Z,3.10
2022-12-24T11:41:06.159Z,2.67
2022-12-24T11:43:45.865Z,1.90
2022-12-24T11:46:22.478Z,1.70
2022-12-24T11:49:14.554Z,1.60
2022-12-24T11:52:06.849Z,2.27
2022-12-24T11:54:46.146Z,1.80
2022-12-24T11:57:17.525Z,1.73
2022-12-24T11:59:49.216Z,1.60
2022-12-24T12:02:24.617Z,1.80
2022-12-24T12:05:00.150Z,1.93
2022-12-24T12:07:32.431Z,1.40
2022-12-24T12:10:06.627Z,1.50
2022-12-24T12:12:41.932Z,1.97
2022-12-24T12:15:17.407Z,1.87
2022-12-24T12:17:51.572Z,1.80
2022-12-24T12:20:26.316Z,1.43
2022-12-24T12:23:01.183Z,2.20
2022-12-24T12:25:37.162Z,1.57
2022-12-24T12:28:12.986Z,1.40
2022-12-24T12:30:45.572Z,1.23
2022-12-24T12:33:26.499Z,1.57
2022-12-24T12:35:59.048Z,2.23
2022-12-24T12:38:30.039Z,2.60
2022-12-24T12:41:14.736Z,3.00
2022-12-24T12:44:26.103Z,2.63
2022-12-24T12:47:18.162Z,3.33
2022-12-24T12:50:00.949Z,3.90
2022-12-24T12:52:54.106Z,5.37
2022-12-24T12:55:40.029Z,6.50
2022-12-24T12:58:18.186Z,5.33
2022-12-24T13:00:53.765Z,5.90
2022-12-24T13:04:01.557Z,5.10
2022-12-24T13:07:05.103Z,4.00
2022-12-24T13:10:01.172Z,3.37
2022-12-24T13:13:03.443Z,3.53
2022-12-24T13:15:50.828Z,3.43
2022-12-24T13:18:49.772Z,3.60
2022-12-24T13:21:22.404Z,5.07
2022-12-24T13:23:51.590Z,4.93
2022-12-24T13:26:21.250Z,3.80
2022-12-24T13:28:49.245Z,2.50
2022-12-24T13:31:30.714Z,2.10
2022-12-24T13:34:03.192Z,1.87
2022-12-24T13:37:05.784Z,2.13
2022-12-24T13:40:16.305Z,2.40
2022-12-24T13:43:09.932Z,3.20
2022-12-24T13:45:49.604Z,3.43
2022-12-24T13:48:32.365Z,3.77
2022-12-24T13:51:20.200Z,5.30
2022-12-24T13:53:50.247Z,4.30
2022-12-24T13:56:27.619Z,4.23
2022-12-24T13:59:21.976Z,5.00
2022-12-24T14:01:50.473Z,5.83
2022-12-24T14:04:26.805Z,4.60
2022-12-24T14:06:59.189Z,5.27
2022-12-24T14:09:30.230Z,4.17
2022-12-24T14:12:48.310Z,4.37
2022-12-24T14:16:05.066Z,7.60
2022-12-24T14:18:38.942Z,6.53
2022-12-24T14:21:20.159Z,7.17
2022-12-24T14:23:56.795Z,3.90
2022-12-24T14:26:31.837Z,5.73
2022-12-24T14:29:06.563Z,4.80
2022-12-24T14:31:36.096Z,4.43
2022-12-24T14:34:08.578Z,6.70
2022-12-24T14:36:37.807Z,7.97
2022-12-24T14:39:09.513Z,9.77
2022-12-24T14:41:55.872Z,8.80
2022-12-24T14:44:35.930Z,6.50
2022-12-24T14:47:21.993Z,6.63
2022-12-24T14:50:17.914Z,6.67
2022-12-24T14:53:08.173Z,7.03
2022-12-24T14:55:43.357Z,5.93
2022-12-24T14:58:26.371Z,7.53
2022-12-24T15:00:58.129Z,7.37
2022-12-24T15:03:30.317Z,7.23
2022-12-24T15:06:03.292Z,7.90
2022-12-24T15:08:37.593Z,7.20
2022-12-24T15:11:10.113Z,7.13
2022-12-24T15:13:41.465Z,8.37
2022-12-24T15:16:13.640Z,9.03
2022-12-24T15:18:51.141Z,7.10
2022-12-24T15:21:27.346Z,5.40
2022-12-24T15:23:55.230Z,5.93
2022-12-24T15:26:29.363Z,5.60
2022-12-24T15:29:03.745Z,6.57
2022-12-24T15:31:32.812Z,5.47
2022-12-24T15:34:02.127Z,5.63
2022-12-24T15:36:35.184Z,5.50
2022-12-24T15:39:06.974Z,6.43
2022-12-24T15:42:02.333Z,6.70
2022-12-24T15:44:41.408Z,6.70
2022-12-24T15:47:17.721Z,6.77
2022-12-24T15:49:52.964Z,5.23
2022-12-24T15:52:25.157Z,5.90
2022-12-24T15:54:58.066Z,7.27
2022-12-24T15:57:31.328Z,6.33
2022-12-24T16:00:01.462Z,6.77
2022-12-24T16:02:38.304Z,6.00
2022-12-24T16:05:36.705Z,5.00
2022-12-24T16:08:27.274Z,5.23
2022-12-24T16:11:12.506Z,4.90
2022-12-24T16:13:43.544Z,5.60
2022-12-24T16:16:15.817Z,5.47
2022-12-24T16:18:54.675Z,4.63
2022-12-24T16:21:29.803Z,5.30
2022-12-24T16:24:08.529Z,6.10
2022-12-24T16:26:38.105Z,7.63
2022-12-24T16:29:05.986Z,6.57
2022-12-24T16:31:38.357Z,7.90
2022-12-24T16:34:06.956Z,8.97
2022-12-24T16:36:36.147Z,7.60
2022-12-24T16:39:21.362Z,8.40
2022-12-24T16:42:07.014Z,7.97
2022-12-24T16:44:34.946Z,8.80
2022-12-24T16:47:03.050Z,10.20
2022-12-24T16:49:31.053Z,8.50
2022-12-24T16:52:00.552Z,8.47
2022-12-24T16:54:30.019Z,7.90
2022-12-24T16:56:58.005Z,9.67
2022-12-24T16:59:26.423Z,9.93
2022-12-24T17:01:57.061Z,10.50
2022-12-24T17:04:25.035Z,9.67
2022-12-24T17:06:52.892Z,8.43
2022-12-24T17:09:22.094Z,8.83
2022-12-24T17:11:49.953Z,7.53
2022-12-24T17:14:20.663Z,8.63
2022-12-24T17:16:49.353Z,9.67
2022-12-24T17:19:17.883Z,7.47
2022-12-24T17:21:46.478Z,8.20
2022-12-24T17:24:14.539Z,8.17
2022-12-24T17:26:43.817Z,9.43
2022-12-24T17:29:12.160Z,8.60
2022-12-24T17:31:40.772Z,9.10
2022-12-24T17:34:09.285Z,8.80
2022-12-24T17:36:37.205Z,6.67
2022-12-24T17:39:05.492Z,6.37
2022-12-24T17:41:33.692Z,7.70
2022-12-24T17:44:04.744Z,6.60
2022-12-24T17:46:32.727Z,6.67
2022-12-24T17:49:00.680Z,6.20
2022-12-24T17:51:28.778Z,6.90
2022-12-24T17:53:56.675Z,8.97
2022-12-24T17:56:24.578Z,7.10
2022-12-24T17:58:55.457Z,7.27
2022-12-24T18:01:30.422Z,6.77
2022-12-24T18:04:01.661Z,7.90
2022-12-24T18:06:30.130Z,6.90
2022-12-24T18:08:58.950Z,7.13
2022-12-24T18:11:30.470Z,7.23
2022-12-24T18:14:00.959Z,6.23
2022-12-24T18:16:33.757Z,6.67
2022-12-24T18:19:02.472Z,5.87
2022-12-24T18:21:33.334Z,4.60
2022-12-24T18:24:02.113Z,7.67
2022-12-24T18:26:33.195Z,7.30
2022-12-24T18:29:04.427Z,5.97
2022-12-24T18:31:35.330Z,6.07
2022-12-24T18:34:06.841Z,6.40
2022-12-24T18:36:35.291Z,4.80
2022-12-24T18:39:03.228Z,5.17
2022-12-24T18:41:32.386Z,6.27
2022-12-24T18:44:00.996Z,7.03
2022-12-24T18:46:34.413Z,10.23
2022-12-24T18:49:02.825Z,6.57
2022-12-24T18:51:36.178Z,5.30
2022-12-24T18:54:04.618Z,6.33
2022-12-24T18:56:33.282Z,6.23
2022-12-24T18:59:04.045Z,6.40
2022-12-24T19:01:35.997Z,7.17
2022-12-24T19:04:04.634Z,6.07
2022-12-24T19:06:32.591Z,4.90
2022-12-24T19:09:01.771Z,5.70
2022-12-24T19:11:32.694Z,4.73
2022-12-24T19:14:02.241Z,5.23
2022-12-24T19:16:34.656Z,5.07
2022-12-24T19:19:04.714Z,5.20
2022-12-24T19:21:33.208Z,5.17
2022-12-24T19:24:01.764Z,6.23
2022-12-24T19:26:29.670Z,5.97
2022-12-24T19:28:57.609Z,6.50
2022-12-24T19:31:26.820Z,7.10
2022-12-24T19:33:57.992Z,7.53
2022-12-24T19:36:29.415Z,8.87
2022-12-24T19:38:58.223Z,8.70
2022-12-24T19:41:30.126Z,8.57
2022-12-24T19:44:00.610Z,9.17
2022-12-24T19:46:34.151Z,11.50
2022-12-24T19:49:05.906Z,11.53
2022-12-24T19:51:35.406Z,12.27
2022-12-24T19:54:05.914Z,12.57
2022-12-24T19:56:34.339Z,12.07
2022-12-24T19:59:04.771Z,13.80
2022-12-24T20:01:35.810Z,14.77
2022-12-24T20:04:08.011Z,16.23
2022-12-24T20:06:36.930Z,15.70
2022-12-24T20:09:08.011Z,14.57
2022-12-24T20:11:37.257Z,13.63
2022-12-24T20:14:07.125Z,13.97
2022-12-24T20:16:36.501Z,11.87
2022-12-24T20:19:07.693Z,10.73
2022-12-24T20:21:37.856Z,11.00
2022-12-24T20:24:08.995Z,9.97
2022-12-24T20:26:37.533Z,8.60
2022-12-24T20:29:07.359Z,8.77
2022-12-24T20:31:36.790Z,9.07
2022-12-24T20:34:08.642Z,11.30
2022-12-24T20:36:38.137Z,12.70
2022-12-24T20:39:07.866Z,11.57
2022-12-24T20:41:37.075Z,11.70
2022-12-24T20:44:05.524Z,11.37
2022-12-24T20:46:33.935Z,12.37
2022-12-24T20:49:02.051Z,13.67
2022-12-24T20:51:32.503Z,11.90
2022-12-24T20:54:02.068Z,12.20
2022-12-24T20:56:31.703Z,15.00
2022-12-24T20:59:01.360Z,19.33
2022-12-24T21:01:30.752Z,10.77
2022-12-24T21:04:04.597Z,11.50
2022-12-24T21:06:36.023Z,9.10
2022-12-24T21:09:06.720Z,8.77
2022-12-24T21:11:52.605Z,6.23
2022-12-24T21:14:24.865Z,7.47
2022-12-24T21:16:54.935Z,8.60
2022-12-24T21:19:26.427Z,8.73
2022-12-24T21:21:55.990Z,8.83
2022-12-24T21:24:24.211Z,9.70
2022-12-24T21:26:52.072Z,9.53
2022-12-24T21:29:19.943Z,8.53
2022-12-24T21:31:48.257Z,8.60
2022-12-24T21:34:16.370Z,8.80
2022-12-24T21:36:45.755Z,9.63
2022-12-24T21:39:15.445Z,9.27
2022-12-24T21:41:43.316Z,9.27
2022-12-24T21:44:11.180Z,7.73
2022-12-24T21:46:39.058Z,8.50
2022-12-24T21:49:24.390Z,8.43
2022-12-24T21:51:52.562Z,9.00
2022-12-24T21:54:23.748Z,8.47
2022-12-24T21:57:21.904Z,8.77
2022-12-24T21:59:50.534Z,12.50
2022-12-24T22:02:20.100Z,11.83
2022-12-24T22:04:48.061Z,10.27
2022-12-24T22:07:42.008Z,7.97
2022-12-24T22:10:30.300Z,7.30
2022-12-24T22:13:06.045Z,6.50
2022-12-24T22:15:34.329Z,8.13
2022-12-24T22:18:02.207Z,7.87
2022-12-24T22:20:30.102Z,6.77
2022-12-24T22:23:00.920Z,6.57
2022-12-24T22:25:31.425Z,5.80
2022-12-24T22:27:59.634Z,6.23
2022-12-24T22:30:28.345Z,6.07
2022-12-24T22:32:56.362Z,5.83
2022-12-24T22:35:24.419Z,5.30
2022-12-24T22:37:56.048Z,5.40
2022-12-24T22:40:27.939Z,5.40
2022-12-24T22:42:57.396Z,4.90
2022-12-24T22:45:25.288Z,5.57
2022-12-24T22:47:53.205Z,6.73
2022-12-24T22:50:21.261Z,6.73
2022-12-24T22:52:49.148Z,5.83
2022-12-24T22:55:17.227Z,5.67
2022-12-24T22:57:45.111Z,4.90
2022-12-24T23:00:36.502Z,5.33
2022-12-24T23:03:05.564Z,5.67
2022-12-24T23:05:33.663Z,5.40
2022-12-24T23:08:01.931Z,5.80
2022-12-24T23:10:29.830Z,5.17
2022-12-24T23:13:15.739Z,5.20
2022-12-24T23:15:45.040Z,5.20
2022-12-24T23:18:13.688Z,5.17
2022-12-24T23:20:46.134Z,6.30
2022-12-24T23:23:15.167Z,5.43
2022-12-24T23:25:43.132Z,5.37
2022-12-24T23:28:11.108Z,5.90
2022-12-24T23:30:38.975Z,4.97
2022-12-24T23:33:08.248Z,5.37
2022-12-24T23:35:36.104Z,6.97
2022-12-24T23:38:03.965Z,5.90
2022-12-24T23:40:32.162Z,5.90
2022-12-24T23:43:00.046Z,5.30
2022-12-24T23:45:27.932Z,5.37
2022-12-24T23:47:55.865Z,4.80
2022-12-24T23:50:25.171Z,5.00
2022-12-24T23:52:53.083Z,5.27
2022-12-24T23:55:20.988Z,5.17
2022-12-24T23:57:48.847Z,4.53
